Startpagina
METAR-TAF:

METAR-TAF

Vliegvelden :

Craig, Colorado, Verenigde Staten

breedte: 40-29-36N, lengte: 107-31-25W, hoogte: 1888 m

Actueel weer

Dit bericht is 1 uur en het 7 minuten geleden gemaakt, om 21:53 UTC
Wind 15 kt uit het zuidwesten met uitschieters tot 25 kt
Temperatuur 13°C
Vochtigheid 21%
Druk 1009 hPa
Zicht: 16.1 km
Gebroken wolken op 11000 ft

METAR: KCAG 192153Z AUTO 23015G25KT 10SM BKN110 13/M09 A2979 RMK AO2 SLP072 T01331089 $

Tijdstip: 17:00 (23:00 UTC)


TAF: ontbreekt

Waarnemingen en weersverwachtingen van meer dan 4000 vliegvelden (METAR en TAF).

De beschikbare stations zijn de gele en rode punten op de kaart.

Ga met uw muis naar het station om de naam te zien.

Klik dan om waarnemingen en weersverwachtingen te zien.

kaart wijzigen: klik op de groene knoppen met een zwart kruis om in te zoomen, op de groene knop met een streepje om uit te zoomen of op de groene pijlen voor aangrenzende kaarten.


METAR-TAF: